sensor_id;sensor_type;location;lat;lon;timestamp;temperature;humidity
11126;DHT22;5617;54.046;10.676;2023-06-10T02:05:11;13.40;99.90
11126;DHT22;5617;54.046;10.676;2023-06-10T02:07:19;13.40;99.90
11126;DHT22;5617;54.046;10.676;2023-06-10T02:09:27;13.40;99.90
11126;DHT22;5617;54.046;10.676;2023-06-10T02:11:34;13.40;99.90
11126;DHT22;5617;54.046;10.676;2023-06-10T02:13:44;13.40;99.90
11126;DHT22;5617;54.046;10.676;2023-06-10T02:15:51;13.60;99.90
11126;DHT22;5617;54.046;10.676;2023-06-10T02:18:00;13.50;99.90
11126;DHT22;5617;54.046;10.676;2023-06-10T02:20:11;13.60;99.90
11126;DHT22;5617;54.046;10.676;2023-06-10T02:22:21;13.60;99.90
11126;DHT22;5617;54.046;10.676;2023-06-10T02:24:28;13.60;99.90
11126;DHT22;5617;54.046;10.676;2023-06-10T02:26:36;13.60;99.90
11126;DHT22;5617;54.046;10.676;2023-06-10T02:28:44;13.60;99.90
11126;DHT22;5617;54.046;10.676;2023-06-10T02:30:52;13.60;99.90
11126;DHT22;5617;54.046;10.676;2023-06-10T02:33:00;13.60;99.90
11126;DHT22;5617;54.046;10.676;2023-06-10T02:35:10;13.60;99.90
11126;DHT22;5617;54.046;10.676;2023-06-10T02:37:18;13.60;99.90
11126;DHT22;5617;54.046;10.676;2023-06-10T02:51:53;13.60;99.90
11126;DHT22;5617;54.046;10.676;2023-06-10T02:54:04;14.00;99.90
11126;DHT22;5617;54.046;10.676;2023-06-10T02:56:12;14.00;99.90
11126;DHT22;5617;54.046;10.676;2023-06-10T02:58:19;14.00;99.90
11126;DHT22;5617;54.046;10.676;2023-06-10T03:00:27;13.90;99.90
11126;DHT22;5617;54.046;10.676;2023-06-10T03:02:35;13.90;99.90
11126;DHT22;5617;54.046;10.676;2023-06-10T03:04:43;13.90;99.90
11126;DHT22;5617;54.046;10.676;2023-06-10T03:06:52;13.80;99.90
11126;DHT22;5617;54.046;10.676;2023-06-10T03:09:00;13.80;99.90
11126;DHT22;5617;54.046;10.676;2023-06-10T03:11:08;13.80;99.90
11126;DHT22;5617;54.046;10.676;2023-06-10T03:13:16;13.80;99.90
11126;DHT22;5617;54.046;10.676;2023-06-10T03:15:24;13.70;99.90
11126;DHT22;5617;54.046;10.676;2023-06-10T03:17:32;13.80;99.90
11126;DHT22;5617;54.046;10.676;2023-06-10T03:19:39;13.70;99.90
11126;DHT22;5617;54.046;10.676;2023-06-10T03:21:49;13.70;99.90
11126;DHT22;5617;54.046;10.676;2023-06-10T03:24:02;13.70;99.90
11126;DHT22;5617;54.046;10.676;2023-06-10T03:26:11;13.70;99.90
11126;DHT22;5617;54.046;10.676;2023-06-10T03:28:19;13.70;99.90
11126;DHT22;5617;54.046;10.676;2023-06-10T03:30:27;13.70;99.90
11126;DHT22;5617;54.046;10.676;2023-06-10T03:32:35;13.70;99.90
11126;DHT22;5617;54.046;10.676;2023-06-10T03:34:43;13.70;99.90
11126;DHT22;5617;54.046;10.676;2023-06-10T03:36:52;13.70;99.90
11126;DHT22;5617;54.046;10.676;2023-06-10T03:38:59;13.70;99.90
11126;DHT22;5617;54.046;10.676;2023-06-10T03:41:09;13.80;99.90
11126;DHT22;5617;54.046;10.676;2023-06-10T03:43:16;13.80;99.90
11126;DHT22;5617;54.046;10.676;2023-06-10T03:45:24;13.80;99.90
11126;DHT22;5617;54.046;10.676;2023-06-10T03:47:34;13.80;99.90
11126;DHT22;5617;54.046;10.676;2023-06-10T03:49:42;13.80;99.90
11126;DHT22;5617;54.046;10.676;2023-06-10T03:51:49;13.90;99.90
11126;DHT22;5617;54.046;10.676;2023-06-10T03:53:57;13.90;99.90
11126;DHT22;5617;54.046;10.676;2023-06-10T03:56:05;14.00;99.90
11126;DHT22;5617;54.046;10.676;2023-06-10T03:58:14;14.00;99.90
11126;DHT22;5617;54.046;10.676;2023-06-10T04:00:22;14.10;99.90
11126;DHT22;5617;54.046;10.676;2023-06-10T04:02:29;14.20;99.90
11126;DHT22;5617;54.046;10.676;2023-06-10T04:04:39;14.20;99.90
11126;DHT22;5617;54.046;10.676;2023-06-10T04:06:47;14.30;99.90
11126;DHT22;5617;54.046;10.676;2023-06-10T04:08:56;14.30;99.90
11126;DHT22;5617;54.046;10.676;2023-06-10T04:11:03;14.30;99.90
11126;DHT22;5617;54.046;10.676;2023-06-10T04:13:11;14.30;99.90
11126;DHT22;5617;54.046;10.676;2023-06-10T04:15:20;14.30;99.90
11126;DHT22;5617;54.046;10.676;2023-06-10T04:17:28;14.30;99.90
11126;DHT22;5617;54.046;10.676;2023-06-10T04:19:35;14.40;99.90
11126;DHT22;5617;54.046;10.676;2023-06-10T04:21:43;14.40;99.90
11126;DHT22;5617;54.046;10.676;2023-06-10T04:23:51;14.40;99.90
11126;DHT22;5617;54.046;10.676;2023-06-10T04:25:58;14.50;99.90
11126;DHT22;5617;54.046;10.676;2023-06-10T04:28:06;14.50;99.90
11126;DHT22;5617;54.046;10.676;2023-06-10T04:30:15;14.70;99.90
11126;DHT22;5617;54.046;10.676;2023-06-10T04:32:24;15.10;99.90
11126;DHT22;5617;54.046;10.676;2023-06-10T04:34:33;15.60;99.90
11126;DHT22;5617;54.046;10.676;2023-06-10T04:36:43;16.10;99.90
11126;DHT22;5617;54.046;10.676;2023-06-10T04:38:50;16.50;99.90
11126;DHT22;5617;54.046;10.676;2023-06-10T04:40:58;16.80;99.90
11126;DHT22;5617;54.046;10.676;2023-06-10T04:43:06;17.10;99.90
11126;DHT22;5617;54.046;10.676;2023-06-10T04:45:13;17.20;99.90
11126;DHT22;5617;54.046;10.676;2023-06-10T04:47:21;17.30;99.90
11126;DHT22;5617;54.046;10.676;2023-06-10T04:49:31;17.40;99.90
11126;DHT22;5617;54.046;10.676;2023-06-10T04:51:39;17.50;99.90
11126;DHT22;5617;54.046;10.676;2023-06-10T04:53:47;17.50;99.90
11126;DHT22;5617;54.046;10.676;2023-06-10T04:55:54;17.40;99.90
11126;DHT22;5617;54.046;10.676;2023-06-10T04:58:02;17.40;99.90
11126;DHT22;5617;54.046;10.676;2023-06-10T05:00:10;17.40;99.90
11126;DHT22;5617;54.046;10.676;2023-06-10T05:02:18;17.40;99.90
11126;DHT22;5617;54.046;10.676;2023-06-10T05:04:26;17.30;99.90
11126;DHT22;5617;54.046;10.676;2023-06-10T05:06:35;17.30;99.90
11126;DHT22;5617;54.046;10.676;2023-06-10T05:08:43;17.20;99.90
11126;DHT22;5617;54.046;10.676;2023-06-10T05:10:51;17.20;99.90
11126;DHT22;5617;54.046;10.676;2023-06-10T05:12:58;17.00;99.90
11126;DHT22;5617;54.046;10.676;2023-06-10T05:15:07;17.00;99.90
11126;DHT22;5617;54.046;10.676;2023-06-10T05:17:15;16.90;99.90
11126;DHT22;5617;54.046;10.676;2023-06-10T05:19:23;16.90;99.90
11126;DHT22;5617;54.046;10.676;2023-06-10T05:21:30;17.00;99.90
11126;DHT22;5617;54.046;10.676;2023-06-10T05:23:39;17.00;99.90
11126;DHT22;5617;54.046;10.676;2023-06-10T05:25:47;16.90;99.90
11126;DHT22;5617;54.046;10.676;2023-06-10T05:27:55;16.90;99.90
11126;DHT22;5617;54.046;10.676;2023-06-10T05:30:06;16.90;99.90
11126;DHT22;5617;54.046;10.676;2023-06-10T05:32:14;16.90;99.90
11126;DHT22;5617;54.046;10.676;2023-06-10T05:34:22;17.00;99.90
11126;DHT22;5617;54.046;10.676;2023-06-10T05:36:30;17.20;99.90
11126;DHT22;5617;54.046;10.676;2023-06-10T05:38:40;17.20;99.90
11126;DHT22;5617;54.046;10.676;2023-06-10T05:40:47;17.20;99.90
11126;DHT22;5617;54.046;10.676;2023-06-10T05:42:57;17.20;99.90
11126;DHT22;5617;54.046;10.676;2023-06-10T05:45:06;17.20;99.90
11126;DHT22;5617;54.046;10.676;2023-06-10T05:47:14;17.20;99.90
11126;DHT22;5617;54.046;10.676;2023-06-10T05:49:22;17.30;99.90
11126;DHT22;5617;54.046;10.676;2023-06-10T05:51:29;17.40;99.90
11126;DHT22;5617;54.046;10.676;2023-06-10T05:53:41;17.40;99.90
11126;DHT22;5617;54.046;10.676;2023-06-10T05:55:49;17.50;99.90
11126;DHT22;5617;54.046;10.676;2023-06-10T05:57:59;17.50;99.90
11126;DHT22;5617;54.046;10.676;2023-06-10T06:00:10;17.60;99.90
11126;DHT22;5617;54.046;10.676;2023-06-10T06:02:18;17.60;99.90
11126;DHT22;5617;54.046;10.676;2023-06-10T06:04:26;17.60;99.90
11126;DHT22;5617;54.046;10.676;2023-06-10T06:06:38;17.50;99.90
11126;DHT22;5617;54.046;10.676;2023-06-10T06:08:48;17.50;99.90
11126;DHT22;5617;54.046;10.676;2023-06-10T06:10:58;17.50;99.90
11126;DHT22;5617;54.046;10.676;2023-06-10T06:13:05;17.50;99.90
11126;DHT22;5617;54.046;10.676;2023-06-10T06:15:13;17.60;99.90
11126;DHT22;5617;54.046;10.676;2023-06-10T06:17:21;17.70;99.90
11126;DHT22;5617;54.046;10.676;2023-06-10T06:19:29;17.80;99.90
11126;DHT22;5617;54.046;10.676;2023-06-10T06:21:36;17.90;99.90
11126;DHT22;5617;54.046;10.676;2023-06-10T06:23:44;18.00;99.90
11126;DHT22;5617;54.046;10.676;2023-06-10T06:25:53;18.20;99.90
11126;DHT22;5617;54.046;10.676;2023-06-10T06:28:00;18.10;99.90
11126;DHT22;5617;54.046;10.676;2023-06-10T06:30:09;18.10;99.90
11126;DHT22;5617;54.046;10.676;2023-06-10T06:32:17;18.20;99.90
11126;DHT22;5617;54.046;10.676;2023-06-10T06:34:25;18.30;99.90
11126;DHT22;5617;54.046;10.676;2023-06-10T06:36:33;18.40;99.90
11126;DHT22;5617;54.046;10.676;2023-06-10T06:38:40;18.50;99.90
11126;DHT22;5617;54.046;10.676;2023-06-10T06:40:48;18.50;99.90
11126;DHT22;5617;54.046;10.676;2023-06-10T06:42:57;18.50;99.90
11126;DHT22;5617;54.046;10.676;2023-06-10T06:45:05;18.40;99.90
11126;DHT22;5617;54.046;10.676;2023-06-10T06:47:13;18.50;99.90
11126;DHT22;5617;54.046;10.676;2023-06-10T06:49:24;18.50;99.90
11126;DHT22;5617;54.046;10.676;2023-06-10T06:51:31;18.50;99.90
11126;DHT22;5617;54.046;10.676;2023-06-10T06:53:39;18.60;99.90
11126;DHT22;5617;54.046;10.676;2023-06-10T06:55:50;18.70;99.90
11126;DHT22;5617;54.046;10.676;2023-06-10T06:57:59;18.90;99.90
11126;DHT22;5617;54.046;10.676;2023-06-10T07:00:11;19.00;99.90
11126;DHT22;5617;54.046;10.676;2023-06-10T07:02:18;19.10;99.90
11126;DHT22;5617;54.046;10.676;2023-06-10T07:04:26;19.10;99.90
11126;DHT22;5617;54.046;10.676;2023-06-10T07:06:34;19.00;99.90
11126;DHT22;5617;54.046;10.676;2023-06-10T07:08:45;19.00;99.90
11126;DHT22;5617;54.046;10.676;2023-06-10T07:10:53;19.20;99.80
11126;DHT22;5617;54.046;10.676;2023-06-10T07:13:02;19.20;99.70
11126;DHT22;5617;54.046;10.676;2023-06-10T07:15:10;19.20;99.80
11126;DHT22;5617;54.046;10.676;2023-06-10T07:17:17;19.30;99.60
11126;DHT22;5617;54.046;10.676;2023-06-10T07:19:25;19.40;99.70
11126;DHT22;5617;54.046;10.676;2023-06-10T07:21:33;19.50;99.40
11126;DHT22;5617;54.046;10.676;2023-06-10T07:23:42;19.70;99.70
11126;DHT22;5617;54.046;10.676;2023-06-10T07:25:51;19.90;99.10
11126;DHT22;5617;54.046;10.676;2023-06-10T07:27:58;19.80;98.90
11126;DHT22;5617;54.046;10.676;2023-06-10T07:30:08;19.80;98.80
11126;DHT22;5617;54.046;10.676;2023-06-10T07:32:16;19.70;98.50
11126;DHT22;5617;54.046;10.676;2023-06-10T07:34:25;19.60;98.70
11126;DHT22;5617;54.046;10.676;2023-06-10T07:36:33;19.50;98.70
11126;DHT22;5617;54.046;10.676;2023-06-10T07:38:40;19.50;98.70
11126;DHT22;5617;54.046;10.676;2023-06-10T07:40:48;19.50;98.80
11126;DHT22;5617;54.046;10.676;2023-06-10T07:42:56;19.40;98.60
11126;DHT22;5617;54.046;10.676;2023-06-10T07:45:04;19.40;98.80
11126;DHT22;5617;54.046;10.676;2023-06-10T07:47:14;19.60;98.70
11126;DHT22;5617;54.046;10.676;2023-06-10T07:49:22;19.80;98.60
11126;DHT22;5617;54.046;10.676;2023-06-10T07:51:29;20.00;98.50
11126;DHT22;5617;54.046;10.676;2023-06-10T07:53:37;20.20;98.30
11126;DHT22;5617;54.046;10.676;2023-06-10T07:55:45;20.20;98.20
11126;DHT22;5617;54.046;10.676;2023-06-10T07:57:53;20.40;98.10
11126;DHT22;5617;54.046;10.676;2023-06-10T08:00:00;20.40;98.00
11126;DHT22;5617;54.046;10.676;2023-06-10T08:02:10;20.60;98.00
11126;DHT22;5617;54.046;10.676;2023-06-10T08:04:19;20.70;97.70
11126;DHT22;5617;54.046;10.676;2023-06-10T08:06:27;20.80;97.60
11126;DHT22;5617;54.046;10.676;2023-06-10T08:08:35;21.00;97.50
11126;DHT22;5617;54.046;10.676;2023-06-10T08:10:47;21.20;97.40
11126;DHT22;5617;54.046;10.676;2023-06-10T08:12:55;21.30;97.10
11126;DHT22;5617;54.046;10.676;2023-06-10T08:15:04;21.40;97.00
11126;DHT22;5617;54.046;10.676;2023-06-10T08:17:11;21.60;96.80
11126;DHT22;5617;54.046;10.676;2023-06-10T08:19:20;21.90;96.70
11126;DHT22;5617;54.046;10.676;2023-06-10T08:21:28;22.00;96.30
11126;DHT22;5617;54.046;10.676;2023-06-10T08:23:35;22.00;96.00
11126;DHT22;5617;54.046;10.676;2023-06-10T08:25:43;22.20;96.00
11126;DHT22;5617;54.046;10.676;2023-06-10T08:27:51;22.20;95.80
11126;DHT22;5617;54.046;10.676;2023-06-10T08:29:59;22.30;95.50
11126;DHT22;5617;54.046;10.676;2023-06-10T08:32:07;22.30;95.50
11126;DHT22;5617;54.046;10.676;2023-06-10T08:34:14;22.40;95.20
11126;DHT22;5617;54.046;10.676;2023-06-10T08:36:23;22.40;95.20
11126;DHT22;5617;54.046;10.676;2023-06-10T08:38:31;22.60;95.10
11126;DHT22;5617;54.046;10.676;2023-06-10T08:40:43;22.70;94.90
11126;DHT22;5617;54.046;10.676;2023-06-10T08:42:58;22.80;94.80
11126;DHT22;5617;54.046;10.676;2023-06-10T08:45:11;23.00;94.60
11126;DHT22;5617;54.046;10.676;2023-06-10T08:47:22;23.10;94.40
11126;DHT22;5617;54.046;10.676;2023-06-10T08:49:30;23.10;94.10
11126;DHT22;5617;54.046;10.676;2023-06-10T08:51:42;23.10;94.00
11126;DHT22;5617;54.046;10.676;2023-06-10T08:54:01;23.20;93.80
11126;DHT22;5617;54.046;10.676;2023-06-10T08:56:10;23.10;93.40
11126;DHT22;5617;54.046;10.676;2023-06-10T08:58:18;23.10;93.60
11126;DHT22;5617;54.046;10.676;2023-06-10T09:00:28;23.00;93.20
11126;DHT22;5617;54.046;10.676;2023-06-10T09:02:36;23.10;93.50
11126;DHT22;5617;54.046;10.676;2023-06-10T09:04:44;23.30;93.20
11126;DHT22;5617;54.046;10.676;2023-06-10T09:06:55;23.30;92.80
11126;DHT22;5617;54.046;10.676;2023-06-10T09:09:03;23.20;93.00
11126;DHT22;5617;54.046;10.676;2023-06-10T09:11:13;23.40;93.10
11126;DHT22;5617;54.046;10.676;2023-06-10T09:13:21;23.70;93.00
11126;DHT22;5617;54.046;10.676;2023-06-10T09:15:28;24.00;92.90
11126;DHT22;5617;54.046;10.676;2023-06-10T09:17:36;24.20;92.60
11126;DHT22;5617;54.046;10.676;2023-06-10T09:19:44;24.20;92.40
11126;DHT22;5617;54.046;10.676;2023-06-10T09:21:55;24.20;92.40
11126;DHT22;5617;54.046;10.676;2023-06-10T09:24:03;24.20;92.30
11126;DHT22;5617;54.046;10.676;2023-06-10T09:26:11;24.40;92.10
11126;DHT22;5617;54.046;10.676;2023-06-10T09:28:18;24.40;91.90
11126;DHT22;5617;54.046;10.676;2023-06-10T09:30:27;24.50;91.80
11126;DHT22;5617;54.046;10.676;2023-06-10T09:32:38;24.50;91.60
11126;DHT22;5617;54.046;10.676;2023-06-10T09:34:47;24.50;91.40
11126;DHT22;5617;54.046;10.676;2023-06-10T09:36:58;24.40;91.40
11126;DHT22;5617;54.046;10.676;2023-06-10T09:39:13;24.30;91.40
11126;DHT22;5617;54.046;10.676;2023-06-10T09:41:22;24.30;91.40
11126;DHT22;5617;54.046;10.676;2023-06-10T09:43:40;24.40;91.20
11126;DHT22;5617;54.046;10.676;2023-06-10T09:45:48;24.40;91.10
11126;DHT22;5617;54.046;10.676;2023-06-10T09:47:56;24.50;91.20
11126;DHT22;5617;54.046;10.676;2023-06-10T09:50:04;24.60;91.10
11126;DHT22;5617;54.046;10.676;2023-06-10T09:52:22;24.50;91.00
11126;DHT22;5617;54.046;10.676;2023-06-10T09:54:31;24.40;91.00
11126;DHT22;5617;54.046;10.676;2023-06-10T09:56:41;24.50;91.10
11126;DHT22;5617;54.046;10.676;2023-06-10T09:58:49;24.70;91.10
11126;DHT22;5617;54.046;10.676;2023-06-10T10:01:04;24.80;90.90
11126;DHT22;5617;54.046;10.676;2023-06-10T10:03:22;24.70;91.20
11126;DHT22;5617;54.046;10.676;2023-06-10T10:05:29;24.70;90.90
11126;DHT22;5617;54.046;10.676;2023-06-10T10:07:39;24.70;90.90
11126;DHT22;5617;54.046;10.676;2023-06-10T10:09:50;24.70;90.80
11126;DHT22;5617;54.046;10.676;2023-06-10T10:11:58;24.80;90.80
11126;DHT22;5617;54.046;10.676;2023-06-10T10:14:07;24.70;90.90
11126;DHT22;5617;54.046;10.676;2023-06-10T10:16:17;24.80;90.80
11126;DHT22;5617;54.046;10.676;2023-06-10T10:18:28;24.80;90.60
11126;DHT22;5617;54.046;10.676;2023-06-10T10:20:41;24.80;90.60
11126;DHT22;5617;54.046;10.676;2023-06-10T10:22:57;24.90;90.50
11126;DHT22;5617;54.046;10.676;2023-06-10T10:25:09;24.90;90.30
11126;DHT22;5617;54.046;10.676;2023-06-10T10:27:26;25.00;90.20
11126;DHT22;5617;54.046;10.676;2023-06-10T10:29:38;25.00;90.20
11126;DHT22;5617;54.046;10.676;2023-06-10T10:31:49;24.90;90.50
11126;DHT22;5617;54.046;10.676;2023-06-10T10:33:58;25.00;90.50
11126;DHT22;5617;54.046;10.676;2023-06-10T10:36:07;25.00;90.50
11126;DHT22;5617;54.046;10.676;2023-06-10T10:38:17;25.20;90.50
11126;DHT22;5617;54.046;10.676;2023-06-10T10:40:25;25.30;90.00
11126;DHT22;5617;54.046;10.676;2023-06-10T10:42:36;25.20;89.20
11126;DHT22;5617;54.046;10.676;2023-06-10T10:44:44;25.10;88.30
11126;DHT22;5617;54.046;10.676;2023-06-10T10:46:52;25.00;88.20
11126;DHT22;5617;54.046;10.676;2023-06-10T10:49:01;25.00;89.00
11126;DHT22;5617;54.046;10.676;2023-06-10T10:51:09;25.10;89.10
11126;DHT22;5617;54.046;10.676;2023-06-10T10:53:21;25.30;89.00
11126;DHT22;5617;54.046;10.676;2023-06-10T10:55:29;25.50;88.70
11126;DHT22;5617;54.046;10.676;2023-06-10T10:57:38;25.60;88.70
11126;DHT22;5617;54.046;10.676;2023-06-10T10:59:52;25.70;88.10
11126;DHT22;5617;54.046;10.676;2023-06-10T11:02:02;25.50;87.40
11126;DHT22;5617;54.046;10.676;2023-06-10T11:04:10;25.60;88.20
11126;DHT22;5617;54.046;10.676;2023-06-10T11:06:18;25.70;88.40
11126;DHT22;5617;54.046;10.676;2023-06-10T11:08:46;25.90;88.50
11126;DHT22;5617;54.046;10.676;2023-06-10T11:10:55;26.10;87.80
11126;DHT22;5617;54.046;10.676;2023-06-10T11:13:08;26.10;86.30
11126;DHT22;5617;54.046;10.676;2023-06-10T11:15:18;26.00;86.10
11126;DHT22;5617;54.046;10.676;2023-06-10T11:17:26;26.10;86.60
11126;DHT22;5617;54.046;10.676;2023-06-10T11:19:34;26.10;86.20
11126;DHT22;5617;54.046;10.676;2023-06-10T11:21:58;25.90;86.20
11126;DHT22;5617;54.046;10.676;2023-06-10T11:24:13;26.00;86.60
11126;DHT22;5617;54.046;10.676;2023-06-10T11:26:30;26.20;86.40
11126;DHT22;5617;54.046;10.676;2023-06-10T11:29:00;26.40;86.20
11126;DHT22;5617;54.046;10.676;2023-06-10T11:31:09;26.40;86.00
11126;DHT22;5617;54.046;10.676;2023-06-10T11:33:57;26.40;85.60
11126;DHT22;5617;54.046;10.676;2023-06-10T11:36:06;26.30;85.40
11126;DHT22;5617;54.046;10.676;2023-06-10T11:38:14;26.30;85.70
11126;DHT22;5617;54.046;10.676;2023-06-10T11:40:26;26.50;85.50
11126;DHT22;5617;54.046;10.676;2023-06-10T11:42:39;26.50;85.00
11126;DHT22;5617;54.046;10.676;2023-06-10T11:44:48;26.40;85.00
11126;DHT22;5617;54.046;10.676;2023-06-10T11:46:57;26.50;85.10
11126;DHT22;5617;54.046;10.676;2023-06-10T11:49:05;26.50;84.70
11126;DHT22;5617;54.046;10.676;2023-06-10T11:51:13;26.50;84.60
11126;DHT22;5617;54.046;10.676;2023-06-10T11:53:21;26.50;84.60
11126;DHT22;5617;54.046;10.676;2023-06-10T11:55:42;26.50;85.60
11126;DHT22;5617;54.046;10.676;2023-06-10T11:57:50;26.70;84.80
11126;DHT22;5617;54.046;10.676;2023-06-10T12:00:05;26.50;84.70
11126;DHT22;5617;54.046;10.676;2023-06-10T12:02:15;26.50;84.60
11126;DHT22;5617;54.046;10.676;2023-06-10T12:04:24;26.70;84.60
11126;DHT22;5617;54.046;10.676;2023-06-10T12:06:40;26.70;84.40
11126;DHT22;5617;54.046;10.676;2023-06-10T12:08:47;26.70;84.10
11126;DHT22;5617;54.046;10.676;2023-06-10T12:10:57;26.60;84.40
11126;DHT22;5617;54.046;10.676;2023-06-10T12:13:05;26.60;85.00
11126;DHT22;5617;54.046;10.676;2023-06-10T12:15:23;26.60;85.00
11126;DHT22;5617;54.046;10.676;2023-06-10T12:17:38;26.90;85.20
11126;DHT22;5617;54.046;10.676;2023-06-10T12:19:46;27.20;84.60
11126;DHT22;5617;54.046;10.676;2023-06-10T12:21:54;27.20;83.80
11126;DHT22;5617;54.046;10.676;2023-06-10T12:24:03;27.30;83.40
11126;DHT22;5617;54.046;10.676;2023-06-10T12:26:14;27.40;82.90
11126;DHT22;5617;54.046;10.676;2023-06-10T12:28:23;27.30;82.40
11126;DHT22;5617;54.046;10.676;2023-06-10T12:30:32;27.50;82.80
11126;DHT22;5617;54.046;10.676;2023-06-10T12:32:41;27.80;82.50
11126;DHT22;5617;54.046;10.676;2023-06-10T12:34:49;28.00;81.60
11126;DHT22;5617;54.046;10.676;2023-06-10T12:36:57;27.80;80.70
11126;DHT22;5617;54.046;10.676;2023-06-10T12:39:06;27.90;80.80
11126;DHT22;5617;54.046;10.676;2023-06-10T12:41:15;27.90;81.00
11126;DHT22;5617;54.046;10.676;2023-06-10T12:43:23;27.90;80.40
11126;DHT22;5617;54.046;10.676;2023-06-10T12:45:31;28.00;80.50
11126;DHT22;5617;54.046;10.676;2023-06-10T12:47:39;27.90;80.60
11126;DHT22;5617;54.046;10.676;2023-06-10T12:49:48;27.90;80.00
11126;DHT22;5617;54.046;10.676;2023-06-10T12:51:56;28.00;79.80
11126;DHT22;5617;54.046;10.676;2023-06-10T12:54:04;28.00;79.70
11126;DHT22;5617;54.046;10.676;2023-06-10T12:56:12;28.20;80.00
11126;DHT22;5617;54.046;10.676;2023-06-10T12:58:21;28.30;79.40
11126;DHT22;5617;54.046;10.676;2023-06-10T13:00:29;28.10;79.60
11126;DHT22;5617;54.046;10.676;2023-06-10T13:02:37;28.10;78.80
11126;DHT22;5617;54.046;10.676;2023-06-10T13:04:45;27.80;78.80
11126;DHT22;5617;54.046;10.676;2023-06-10T13:06:53;27.60;79.50
11126;DHT22;5617;54.046;10.676;2023-06-10T13:09:02;27.60;79.70
11126;DHT22;5617;54.046;10.676;2023-06-10T13:11:10;27.80;80.40
11126;DHT22;5617;54.046;10.676;2023-06-10T13:13:18;27.90;79.70
11126;DHT22;5617;54.046;10.676;2023-06-10T13:15:27;28.00;79.40
11126;DHT22;5617;54.046;10.676;2023-06-10T13:17:35;28.00;79.60
11126;DHT22;5617;54.046;10.676;2023-06-10T13:19:43;28.20;79.50
11126;DHT22;5617;54.046;10.676;2023-06-10T13:21:52;28.10;79.60
11126;DHT22;5617;54.046;10.676;2023-06-10T13:23:59;28.00;79.40
11126;DHT22;5617;54.046;10.676;2023-06-10T13:26:07;28.00;79.30
11126;DHT22;5617;54.046;10.676;2023-06-10T13:28:15;28.10;79.00
11126;DHT22;5617;54.046;10.676;2023-06-10T13:30:23;28.00;78.90
11126;DHT22;5617;54.046;10.676;2023-06-10T13:32:32;27.90;79.40
11126;DHT22;5617;54.046;10.676;2023-06-10T13:34:40;27.80;79.40
11126;DHT22;5617;54.046;10.676;2023-06-10T13:36:47;27.70;78.90
11126;DHT22;5617;54.046;10.676;2023-06-10T13:38:55;27.80;79.20
11126;DHT22;5617;54.046;10.676;2023-06-10T13:41:03;27.90;79.40
11126;DHT22;5617;54.046;10.676;2023-06-10T13:43:11;28.10;79.30
11126;DHT22;5617;54.046;10.676;2023-06-10T13:45:19;28.30;78.90
11126;DHT22;5617;54.046;10.676;2023-06-10T13:47:27;28.30;78.90
11126;DHT22;5617;54.046;10.676;2023-06-10T13:49:37;28.30;78.40
11126;DHT22;5617;54.046;10.676;2023-06-10T13:51:45;28.20;78.30
11126;DHT22;5617;54.046;10.676;2023-06-10T13:53:52;28.20;78.40
11126;DHT22;5617;54.046;10.676;2023-06-10T13:56:00;28.10;78.20
11126;DHT22;5617;54.046;10.676;2023-06-10T13:58:08;28.00;78.50
11126;DHT22;5617;54.046;10.676;2023-06-10T14:00:19;27.90;78.10
11126;DHT22;5617;54.046;10.676;2023-06-10T14:02:27;27.70;78.30
11126;DHT22;5617;54.046;10.676;2023-06-10T14:04:34;27.70;78.60
11126;DHT22;5617;54.046;10.676;2023-06-10T14:06:43;27.80;78.70
11126;DHT22;5617;54.046;10.676;2023-06-10T14:08:52;27.80;78.50
11126;DHT22;5617;54.046;10.676;2023-06-10T14:11:04;27.60;78.80
11126;DHT22;5617;54.046;10.676;2023-06-10T14:13:11;27.60;79.00
11126;DHT22;5617;54.046;10.676;2023-06-10T14:15:19;27.80;78.90
11126;DHT22;5617;54.046;10.676;2023-06-10T14:17:26;27.80;78.50
11126;DHT22;5617;54.046;10.676;2023-06-10T14:19:34;27.90;78.20
11126;DHT22;5617;54.046;10.676;2023-06-10T14:21:42;28.00;77.80
11126;DHT22;5617;54.046;10.676;2023-06-10T14:23:54;27.80;77.40
11126;DHT22;5617;54.046;10.676;2023-06-10T14:26:01;27.70;77.60
11126;DHT22;5617;54.046;10.676;2023-06-10T14:28:12;27.80;77.70
11126;DHT22;5617;54.046;10.676;2023-06-10T14:30:21;27.90;77.20
11126;DHT22;5617;54.046;10.676;2023-06-10T14:32:28;27.70;77.60
11126;DHT22;5617;54.046;10.676;2023-06-10T14:34:36;27.90;78.00
11126;DHT22;5617;54.046;10.676;2023-06-10T14:36:45;28.20;77.30
11126;DHT22;5617;54.046;10.676;2023-06-10T14:38:54;28.00;77.20
11126;DHT22;5617;54.046;10.676;2023-06-10T14:41:03;27.90;76.90
11126;DHT22;5617;54.046;10.676;2023-06-10T14:43:10;27.60;75.70
11126;DHT22;5617;54.046;10.676;2023-06-10T14:45:18;27.40;76.20
11126;DHT22;5617;54.046;10.676;2023-06-10T14:47:26;27.20;76.00
11126;DHT22;5617;54.046;10.676;2023-06-10T14:49:33;27.20;76.80
11126;DHT22;5617;54.046;10.676;2023-06-10T14:51:41;27.30;77.30
11126;DHT22;5617;54.046;10.676;2023-06-10T14:53:48;27.60;76.70
11126;DHT22;5617;54.046;10.676;2023-06-10T14:55:59;27.60;75.90
11126;DHT22;5617;54.046;10.676;2023-06-10T14:58:06;27.50;75.70
11126;DHT22;5617;54.046;10.676;2023-06-10T15:00:15;27.50;75.80
11126;DHT22;5617;54.046;10.676;2023-06-10T15:02:26;27.50;75.70
11126;DHT22;5617;54.046;10.676;2023-06-10T15:04:34;27.50;76.00
11126;DHT22;5617;54.046;10.676;2023-06-10T15:06:41;27.50;76.00
11126;DHT22;5617;54.046;10.676;2023-06-10T15:08:50;27.80;76.30
11126;DHT22;5617;54.046;10.676;2023-06-10T15:10:59;27.90;76.00
11126;DHT22;5617;54.046;10.676;2023-06-10T15:13:07;27.90;76.00
11126;DHT22;5617;54.046;10.676;2023-06-10T15:15:15;27.80;74.60
11126;DHT22;5617;54.046;10.676;2023-06-10T15:17:22;27.80;74.30
11126;DHT22;5617;54.046;10.676;2023-06-10T15:19:30;27.40;73.50
11126;DHT22;5617;54.046;10.676;2023-06-10T15:21:38;27.10;74.30
11126;DHT22;5617;54.046;10.676;2023-06-10T15:23:45;27.20;74.80
11126;DHT22;5617;54.046;10.676;2023-06-10T15:25:53;27.20;74.20
11126;DHT22;5617;54.046;10.676;2023-06-10T15:28:02;26.90;73.70
11126;DHT22;5617;54.046;10.676;2023-06-10T15:30:12;26.70;73.90
11126;DHT22;5617;54.046;10.676;2023-06-10T15:32:19;26.50;74.20
11126;DHT22;5617;54.046;10.676;2023-06-10T15:34:27;26.40;74.70
11126;DHT22;5617;54.046;10.676;2023-06-10T15:36:35;26.50;75.20
11126;DHT22;5617;54.046;10.676;2023-06-10T15:38:43;26.30;75.30
11126;DHT22;5617;54.046;10.676;2023-06-10T15:40:52;26.30;75.10
11126;DHT22;5617;54.046;10.676;2023-06-10T15:43:04;26.20;75.60
11126;DHT22;5617;54.046;10.676;2023-06-10T15:45:12;26.10;75.70
11126;DHT22;5617;54.046;10.676;2023-06-10T15:47:20;26.00;75.60
11126;DHT22;5617;54.046;10.676;2023-06-10T15:49:28;26.20;76.10
11126;DHT22;5617;54.046;10.676;2023-06-10T15:51:35;26.20;75.90